createdAt,value
2023-11-30T00:00:43.610Z,6.00
2023-11-30T00:03:49.410Z,6.10
2023-11-30T00:06:55.284Z,6.13
2023-11-30T00:10:00.828Z,6.02
2023-11-30T00:13:06.184Z,6.08
2023-11-30T00:16:12.093Z,5.95
2023-11-30T00:19:17.908Z,5.98
2023-11-30T00:22:23.851Z,6.06
2023-11-30T00:25:30.098Z,6.08
2023-11-30T00:28:35.829Z,6.18
2023-11-30T00:31:42.454Z,6.14
2023-11-30T00:34:49.081Z,6.10
2023-11-30T00:37:54.495Z,6.02
2023-11-30T00:41:00.252Z,6.14
2023-11-30T00:44:05.980Z,6.07
2023-11-30T00:47:11.551Z,6.04
2023-11-30T00:50:17.276Z,5.89
2023-11-30T00:53:23.015Z,5.99
2023-11-30T00:56:28.755Z,6.09
2023-11-30T00:59:34.561Z,6.10
2023-11-30T01:02:41.223Z,6.04
2023-11-30T01:05:47.614Z,6.07
2023-11-30T01:08:53.287Z,6.03
2023-11-30T01:11:58.920Z,6.08
2023-11-30T01:15:05.603Z,5.91
2023-11-30T01:18:14.201Z,5.95
2023-11-30T01:21:19.935Z,6.03
2023-11-30T01:24:25.682Z,6.12
2023-11-30T01:27:30.906Z,6.10
2023-11-30T01:30:36.322Z,6.09
2023-11-30T01:33:42.138Z,5.92
2023-11-30T01:36:47.400Z,5.91
2023-11-30T01:39:52.942Z,5.98
2023-11-30T01:42:58.794Z,6.04
2023-11-30T01:46:05.036Z,5.98
2023-11-30T01:49:10.778Z,6.03
2023-11-30T01:52:16.533Z,6.08
2023-11-30T01:55:22.996Z,6.03
2023-11-30T01:58:28.660Z,6.01
2023-11-30T02:01:36.452Z,6.05
2023-11-30T02:04:43.786Z,6.06
2023-11-30T02:07:49.863Z,6.13
2023-11-30T02:10:57.091Z,6.21
2023-11-30T02:14:04.541Z,6.17
2023-11-30T02:17:10.298Z,6.08
2023-11-30T02:20:16.049Z,6.02
2023-11-30T02:23:22.025Z,6.03
2023-11-30T02:26:27.792Z,5.98
2023-11-30T02:29:33.265Z,6.13
2023-11-30T02:32:39.045Z,6.21
2023-11-30T02:35:44.876Z,6.11
2023-11-30T02:38:50.649Z,6.16
2023-11-30T02:41:56.399Z,6.15
2023-11-30T02:45:02.290Z,5.97
2023-11-30T02:48:08.276Z,5.82
2023-11-30T02:51:14.112Z,5.77
2023-11-30T02:54:21.015Z,5.73
2023-11-30T02:57:27.048Z,5.70
2023-11-30T03:00:32.933Z,5.70
2023-11-30T03:03:38.565Z,5.68
2023-11-30T03:06:44.602Z,5.72
2023-11-30T03:09:50.323Z,5.76
2023-11-30T03:12:56.274Z,5.66
2023-11-30T03:16:02.097Z,5.81
2023-11-30T03:19:16.335Z,5.79
2023-11-30T03:22:23.449Z,5.64
2023-11-30T03:25:29.091Z,5.62
2023-11-30T03:28:34.890Z,5.51
2023-11-30T03:31:41.043Z,5.38
2023-11-30T03:34:48.380Z,5.37
2023-11-30T03:37:54.349Z,5.36
2023-11-30T03:41:01.078Z,5.22
2023-11-30T03:44:06.767Z,5.21
2023-11-30T03:47:12.151Z,5.16
2023-11-30T03:50:18.004Z,5.15
2023-11-30T03:53:23.544Z,5.11
2023-11-30T03:56:32.547Z,4.93
2023-11-30T03:59:38.098Z,4.97
2023-11-30T04:02:44.666Z,5.04
2023-11-30T04:05:50.558Z,4.87
2023-11-30T04:08:56.217Z,5.02
2023-11-30T04:12:01.736Z,5.01
2023-11-30T04:15:08.221Z,5.04
2023-11-30T04:18:13.983Z,5.03
2023-11-30T04:21:22.532Z,5.05
2023-11-30T04:24:28.486Z,4.96
2023-11-30T04:27:33.979Z,4.88
2023-11-30T04:30:39.772Z,5.00
2023-11-30T04:33:45.409Z,4.97
2023-11-30T04:36:51.069Z,4.90
2023-11-30T04:39:58.272Z,4.82
2023-11-30T04:43:04.223Z,4.92
2023-11-30T04:46:10.430Z,4.98
2023-11-30T04:49:16.317Z,4.94
2023-11-30T04:52:22.250Z,4.88
2023-11-30T04:55:27.500Z,4.91
2023-11-30T04:58:33.576Z,4.95
2023-11-30T05:01:38.981Z,4.97
2023-11-30T05:04:44.750Z,4.95
2023-11-30T05:07:50.775Z,4.82
2023-11-30T05:10:56.885Z,4.83
2023-11-30T05:14:03.164Z,4.80
2023-11-30T05:17:08.872Z,4.80
2023-11-30T05:20:14.693Z,4.79
2023-11-30T05:23:20.680Z,4.80
2023-11-30T05:26:26.516Z,4.84
2023-11-30T05:29:32.222Z,4.85
2023-11-30T05:32:37.386Z,4.71
2023-11-30T05:35:42.976Z,4.70
2023-11-30T05:38:48.350Z,4.94
2023-11-30T05:41:54.784Z,4.84
2023-11-30T05:44:59.934Z,4.78
2023-11-30T05:48:05.593Z,4.69
2023-11-30T05:51:11.098Z,4.69
2023-11-30T05:54:17.299Z,4.87
2023-11-30T05:57:23.113Z,4.67
2023-11-30T06:00:28.585Z,4.67
2023-11-30T06:03:34.185Z,4.78
2023-11-30T06:06:39.669Z,4.80
2023-11-30T06:09:45.269Z,4.89
2023-11-30T06:12:50.696Z,4.68
2023-11-30T06:15:56.238Z,4.83
2023-11-30T06:19:01.878Z,4.87
2023-11-30T06:22:08.123Z,4.95
2023-11-30T06:25:13.793Z,4.89
2023-11-30T06:28:21.142Z,4.78
2023-11-30T06:31:26.233Z,4.77
2023-11-30T06:34:35.000Z,4.89
2023-11-30T06:37:40.751Z,4.83
2023-11-30T06:40:46.618Z,4.89
2023-11-30T06:43:52.388Z,4.76
2023-11-30T06:46:57.680Z,4.93
2023-11-30T06:50:04.818Z,4.88
2023-11-30T06:53:10.753Z,4.88
2023-11-30T06:56:16.020Z,4.82
2023-11-30T06:59:21.170Z,4.90
2023-11-30T07:02:26.463Z,4.90
2023-11-30T07:05:31.700Z,4.91
2023-11-30T07:08:36.971Z,5.06
2023-11-30T07:11:43.971Z,5.02
2023-11-30T07:14:51.549Z,5.05
2023-11-30T07:17:57.511Z,5.01
2023-11-30T07:21:02.764Z,5.02
2023-11-30T07:24:11.522Z,5.10
2023-11-30T07:27:19.696Z,5.07
2023-11-30T07:30:25.125Z,5.17
2023-11-30T07:33:30.881Z,5.16
2023-11-30T07:36:36.073Z,5.13
2023-11-30T07:39:41.386Z,5.17
2023-11-30T07:42:47.408Z,5.10
2023-11-30T07:45:52.645Z,5.13
2023-11-30T07:48:58.123Z,5.06
2023-11-30T07:52:03.793Z,5.04
2023-11-30T07:55:09.563Z,5.09
2023-11-30T07:58:14.888Z,5.09
2023-11-30T08:01:20.057Z,5.07
2023-11-30T08:04:25.994Z,5.07
2023-11-30T08:07:30.991Z,5.07
2023-11-30T08:10:36.247Z,5.10
2023-11-30T08:13:42.136Z,5.15
2023-11-30T08:16:47.775Z,5.16
2023-11-30T08:19:53.630Z,5.21
2023-11-30T08:22:59.407Z,5.13
2023-11-30T08:26:05.456Z,5.17
2023-11-30T08:29:10.769Z,5.12
2023-11-30T21:10:15.665Z,4.67
2023-11-30T21:13:21.086Z,4.64
2023-11-30T21:16:26.403Z,4.81
2023-11-30T21:19:32.423Z,4.89
2023-11-30T21:22:37.900Z,4.78
2023-11-30T21:25:44.638Z,4.84
2023-11-30T21:28:49.880Z,4.78
2023-11-30T21:31:55.898Z,4.73
2023-11-30T21:35:01.783Z,4.77
2023-11-30T21:38:07.383Z,4.81
2023-11-30T21:41:16.754Z,4.73
2023-11-30T21:44:22.251Z,4.74
2023-11-30T21:47:27.973Z,4.72
2023-11-30T21:50:33.318Z,4.82
2023-11-30T21:53:38.970Z,4.77
2023-11-30T21:56:44.402Z,4.69
2023-11-30T21:59:49.909Z,4.70
2023-11-30T22:02:55.817Z,4.70
2023-11-30T22:06:01.137Z,4.79
2023-11-30T22:09:07.295Z,4.88
2023-11-30T22:12:12.646Z,4.77
2023-11-30T22:15:19.923Z,4.80
2023-11-30T22:18:25.728Z,4.79
2023-11-30T22:21:32.336Z,4.87
2023-11-30T22:24:38.917Z,4.79
2023-11-30T22:27:44.482Z,4.66
2023-11-30T22:30:49.880Z,4.79
2023-11-30T22:33:55.279Z,4.77
2023-11-30T22:37:02.368Z,4.76
2023-11-30T22:40:08.644Z,4.78
2023-11-30T22:43:14.421Z,4.84
2023-11-30T22:46:20.811Z,4.83
2023-11-30T22:49:26.621Z,4.92
2023-11-30T22:52:32.416Z,4.86
2023-11-30T22:55:38.044Z,4.88
2023-11-30T22:58:43.458Z,4.87
2023-11-30T23:01:49.454Z,4.89
2023-11-30T23:04:55.602Z,4.95
2023-11-30T23:08:01.110Z,4.97
2023-11-30T23:11:08.571Z,4.92
2023-11-30T23:14:14.599Z,4.96
2023-11-30T23:17:21.285Z,4.80
2023-11-30T23:20:27.737Z,4.81
2023-11-30T23:23:32.770Z,4.90
2023-11-30T23:26:38.032Z,4.82
2023-11-30T23:29:44.088Z,5.04
2023-11-30T23:32:52.384Z,4.93
2023-11-30T23:35:58.593Z,4.95
2023-11-30T23:39:05.621Z,5.04
2023-11-30T23:42:13.192Z,5.01
2023-11-30T23:45:19.102Z,4.94
2023-11-30T23:48:24.499Z,5.00
2023-11-30T23:51:30.354Z,4.97
2023-11-30T23:54:35.660Z,4.93
2023-11-30T23:57:41.020Z,4.90
